createdAt,value
2019-04-20T03:28:28.030Z,0.00
2019-04-20T03:29:18.877Z,0.00
2019-04-20T03:31:04.046Z,0.00
2019-04-20T03:31:45.000Z,0.00
2019-04-20T03:32:49.901Z,0.00
2019-04-20T03:33:41.373Z,0.00
2019-04-20T03:34:55.605Z,0.00
2019-04-20T03:35:28.609Z,0.00
2019-04-20T03:36:50.022Z,0.00
2019-04-20T03:37:33.401Z,0.00
2019-04-20T03:38:19.810Z,0.00
2019-04-20T03:39:25.581Z,0.00
2019-04-20T03:40:17.371Z,0.00
2019-04-20T03:41:16.542Z,0.00
2019-04-20T03:42:06.806Z,0.00
2019-04-20T03:43:05.592Z,0.00
2019-04-20T03:44:09.953Z,0.00
2019-04-20T03:45:10.793Z,0.00
2019-04-20T03:46:08.304Z,0.00
2019-04-20T03:47:08.803Z,0.00
2019-04-20T03:48:16.078Z,0.00
2019-04-20T03:49:20.073Z,0.00
2019-04-20T03:50:33.646Z,0.00
2019-04-20T03:51:32.007Z,0.00
2019-04-20T03:52:26.287Z,0.00
2019-04-20T03:53:22.872Z,0.00
2019-04-20T03:54:20.159Z,0.00
2019-04-20T03:55:24.321Z,0.00
2019-04-20T03:56:28.340Z,0.00
2019-04-20T03:57:26.568Z,0.00
2019-04-20T03:58:24.366Z,4.00
2019-04-20T03:59:16.096Z,0.00
2019-04-20T04:00:22.066Z,0.00
2019-04-20T04:01:35.907Z,4.00
2019-04-20T04:03:34.936Z,4.00
2019-04-20T04:04:27.673Z,4.00
2019-04-20T04:05:23.866Z,8.00
2019-04-20T04:06:14.771Z,8.00
2019-04-20T04:07:15.366Z,8.00
2019-04-20T04:08:14.674Z,8.00
2019-04-20T04:09:16.443Z,12.00
2019-04-20T04:10:17.278Z,12.00
2019-04-20T04:11:21.007Z,12.00
2019-04-20T04:12:15.398Z,16.00
2019-04-20T04:13:05.158Z,20.00
2019-04-20T04:14:05.142Z,20.00
2019-04-20T04:15:06.418Z,28.00
2019-04-20T04:16:08.689Z,28.00
2019-04-20T04:17:05.859Z,32.00
2019-04-20T04:18:13.874Z,40.00
2019-04-20T04:19:12.784Z,44.00
2019-04-20T04:20:10.126Z,52.00
2019-04-20T04:21:10.043Z,60.00
2019-04-20T04:22:18.060Z,68.00
2019-04-20T04:23:22.234Z,76.00
2019-04-20T04:24:17.035Z,84.00
2019-04-20T04:25:15.913Z,92.00
2019-04-20T04:26:22.280Z,104.00
2019-04-20T04:27:22.499Z,112.00
2019-04-20T04:28:20.675Z,124.00
2019-04-20T04:29:26.856Z,136.00
2019-04-20T04:30:20.698Z,148.00
2019-04-20T04:31:22.868Z,164.00
2019-04-20T04:33:45.709Z,192.00
2019-04-20T04:34:27.853Z,212.00
2019-04-20T04:35:17.053Z,228.00
2019-04-20T04:36:21.151Z,244.00
2019-04-20T04:37:24.164Z,264.00
2019-04-20T04:38:27.328Z,284.00
2019-04-20T04:39:26.386Z,308.00
2019-04-20T04:40:32.754Z,328.00
2019-04-20T04:42:30.389Z,376.00
2019-04-20T04:43:25.395Z,420.00
2019-04-20T04:44:19.379Z,512.00
2019-04-20T04:45:10.667Z,776.00
2019-04-20T04:46:05.811Z,984.00
2019-04-20T04:47:08.041Z,1152.00
2019-04-20T04:48:06.748Z,1296.00
2019-04-20T04:49:14.929Z,1500.00
2019-04-20T04:50:11.614Z,1668.00
2019-04-20T04:51:11.957Z,1836.00
2019-04-20T04:52:10.373Z,2364.00
2019-04-20T04:53:13.408Z,2432.00
2019-04-20T04:54:16.422Z,1984.00
2019-04-20T04:55:17.117Z,2200.00
2019-04-20T04:56:10.993Z,2516.00
2019-04-20T04:57:05.323Z,2152.00
2019-04-20T04:58:06.384Z,2468.00
2019-04-20T04:59:06.429Z,2256.00
2019-04-20T05:00:05.667Z,1668.00
2019-04-20T05:01:12.690Z,2136.00
2019-04-20T05:02:05.364Z,2808.00
2019-04-20T05:03:23.411Z,2912.00
2019-04-20T05:04:43.099Z,2440.00
2019-04-20T05:05:23.834Z,3156.00
2019-04-20T05:06:25.049Z,3748.00
2019-04-20T05:07:16.052Z,4544.00
2019-04-20T05:08:17.397Z,4164.00
2019-04-20T05:09:09.056Z,2912.00
2019-04-20T05:10:05.674Z,2796.00
2019-04-20T05:11:05.337Z,3640.00
2019-04-20T05:12:11.868Z,4808.00
2019-04-20T05:13:05.327Z,3728.00
2019-04-20T05:14:10.134Z,3136.00
2019-04-20T05:15:14.284Z,3412.00
2019-04-20T05:16:19.379Z,2392.00
2019-04-20T05:17:20.684Z,3032.00
2019-04-20T05:18:28.601Z,3520.00
2019-04-20T05:19:41.245Z,3480.00
2019-04-20T05:20:23.034Z,5028.00
2019-04-20T05:21:25.300Z,4528.00
2019-04-20T05:22:26.151Z,3660.00
2019-04-20T05:23:22.022Z,3460.00
2019-04-20T05:24:22.622Z,3004.00
2019-04-20T05:25:25.146Z,2780.00
2019-04-20T05:26:25.615Z,2888.00
2019-04-20T05:27:24.909Z,2840.00
2019-04-20T05:28:20.696Z,4464.00
2019-04-20T05:29:14.482Z,5972.00
2019-04-20T05:30:05.791Z,4764.00
2019-04-20T05:31:07.994Z,3248.00
2019-04-20T05:32:12.458Z,2832.00
2019-04-20T05:33:09.071Z,3016.00
2019-04-20T05:34:25.776Z,2900.00
2019-04-20T05:35:26.598Z,2804.00
2019-04-20T05:36:23.554Z,3320.00
2019-04-20T05:37:33.385Z,3676.00
2019-04-20T05:38:32.491Z,3052.00
2019-04-20T05:39:32.666Z,2880.00
2019-04-20T05:40:29.326Z,2632.00
2019-04-20T05:41:24.059Z,3616.00
2019-04-20T05:42:29.999Z,3552.00
2019-04-20T05:43:23.758Z,2784.00
2019-04-20T05:44:22.079Z,2504.00
2019-04-20T05:45:20.534Z,2692.00
2019-04-20T05:46:26.170Z,3844.00
2019-04-20T05:47:26.699Z,4160.00
2019-04-20T05:48:22.163Z,3748.00
2019-04-20T05:49:25.842Z,4300.00
2019-04-20T05:50:29.051Z,7300.00
2019-04-20T05:51:29.464Z,8344.00
2019-04-20T05:52:35.064Z,8064.00
2019-04-20T05:53:26.440Z,7236.00
2019-04-20T05:54:26.802Z,6464.00
2019-04-20T05:55:31.870Z,6616.00
2019-04-20T05:56:32.773Z,4980.00
2019-04-20T05:57:30.231Z,3896.00
2019-04-20T05:58:26.101Z,3972.00
2019-04-20T05:59:23.414Z,4216.00
2019-04-20T06:00:32.049Z,3568.00
2019-04-20T06:01:25.224Z,5056.00
2019-04-20T06:02:29.410Z,5480.00
2019-04-20T06:03:26.146Z,4412.00
2019-04-20T06:04:38.814Z,5324.00
2019-04-20T06:05:27.534Z,4584.00
2019-04-20T06:06:27.624Z,4720.00
2019-04-20T06:07:42.365Z,4936.00
2019-04-20T06:08:41.696Z,3804.00
2019-04-20T06:09:27.559Z,3480.00
2019-04-20T06:10:34.675Z,2936.00
2019-04-20T06:11:25.575Z,2928.00
2019-04-20T06:12:32.005Z,2980.00
2019-04-20T06:13:17.385Z,2772.00
2019-04-20T06:14:15.197Z,2800.00
2019-04-20T06:15:22.413Z,2936.00
2019-04-20T06:16:23.102Z,3412.00
2019-04-20T06:17:28.553Z,4304.00
2019-04-20T06:19:31.975Z,4036.00
2019-04-20T06:20:33.426Z,4560.00
2019-04-20T06:21:33.768Z,6360.00
2019-04-20T06:22:31.434Z,8020.00
2019-04-20T06:23:34.008Z,7512.00
2019-04-20T06:24:38.065Z,6712.00
2019-04-20T06:26:43.713Z,5612.00
2019-04-20T06:27:32.734Z,7076.00
2019-04-20T06:28:22.010Z,7964.00
2019-04-20T06:29:23.548Z,8652.00
2019-04-20T06:30:21.476Z,8820.00
2019-04-20T06:31:42.218Z,8844.00
2019-04-20T06:32:33.951Z,8664.00
2019-04-20T06:34:33.399Z,10236.00
2019-04-20T06:35:42.816Z,12436.00
2019-04-20T06:36:35.366Z,13324.00
2019-04-20T06:37:23.257Z,12796.00
2019-04-20T06:38:44.288Z,12680.00
2019-04-20T06:40:50.218Z,13976.00
2019-04-20T06:41:43.266Z,12888.00
2019-04-20T06:42:23.052Z,13012.00
2019-04-20T06:43:36.888Z,11296.00
2019-04-20T06:44:33.208Z,10272.00
2019-04-20T06:45:35.018Z,11244.00
2019-04-20T06:46:28.358Z,13440.00
2019-04-20T06:47:29.428Z,15552.00
2019-04-20T06:48:36.346Z,15328.00
2019-04-20T06:50:22.637Z,14468.00
2019-04-20T06:51:28.790Z,14368.00
2019-04-20T06:52:39.761Z,13944.00
2019-04-20T06:53:31.883Z,13444.00
2019-04-20T06:54:17.612Z,13076.00
2019-04-20T06:55:36.856Z,12780.00
2019-04-20T06:56:29.422Z,12412.00
2019-04-20T06:57:31.392Z,12140.00
2019-04-20T06:58:39.536Z,11936.00
2019-04-20T06:59:33.482Z,11756.00
2019-04-20T07:00:25.993Z,11464.00
2019-04-20T07:01:37.259Z,11260.00
2019-04-20T07:02:44.663Z,11172.00
2019-04-20T07:03:45.286Z,10900.00
2019-04-20T07:04:41.916Z,10572.00
2019-04-20T07:05:28.668Z,10212.00
2019-04-20T07:06:43.511Z,9944.00
2019-04-20T07:07:32.475Z,10024.00
2019-04-20T07:08:45.191Z,9876.00
2019-04-20T07:09:45.217Z,9276.00
2019-04-20T07:10:33.924Z,8516.00
2019-04-20T07:11:28.266Z,7956.00
2019-04-20T07:12:27.369Z,7688.00
2019-04-20T07:13:23.974Z,7608.00
2019-04-20T07:14:17.611Z,7560.00
2019-04-20T07:15:22.815Z,7516.00
2019-04-20T07:16:28.319Z,7484.00
2019-04-20T07:18:31.268Z,7424.00
2019-04-20T07:19:30.038Z,7376.00
2019-04-20T07:20:35.099Z,7340.00
2019-04-20T07:21:45.150Z,7324.00
2019-04-20T07:24:38.429Z,7280.00
2019-04-20T07:25:34.557Z,7256.00
2019-04-20T07:26:31.895Z,7244.00
2019-04-20T07:27:34.178Z,7228.00
2019-04-20T07:28:32.849Z,7220.00
2019-04-20T07:29:35.372Z,7204.00
2019-04-20T07:30:29.671Z,7192.00
2019-04-20T07:31:23.033Z,7180.00
2019-04-20T07:32:46.331Z,7120.00
2019-04-20T07:34:31.842Z,7048.00
2019-04-20T07:35:34.418Z,7004.00
2019-04-20T07:36:42.725Z,7000.00
2019-04-20T07:38:07.018Z,6984.00
2019-04-20T07:39:32.787Z,6900.00
2019-04-20T07:40:35.954Z,6872.00
2019-04-20T07:41:44.586Z,6856.00
2019-04-20T07:42:35.071Z,6836.00
2019-04-20T07:43:32.023Z,6796.00
2019-04-20T07:44:41.404Z,6760.00
2019-04-20T07:46:47.125Z,6672.00
2019-04-20T07:48:01.607Z,6620.00
2019-04-20T07:48:35.069Z,6572.00
2019-04-20T07:49:35.757Z,6524.00
2019-04-20T07:50:26.171Z,6460.00
2019-04-20T07:51:21.335Z,6076.00
2019-04-20T07:52:14.332Z,5000.00
2019-04-20T07:53:32.156Z,4160.00
2019-04-20T07:54:38.680Z,3896.00
2019-04-20T07:55:37.067Z,3700.00
2019-04-20T07:56:40.731Z,3592.00
2019-04-20T07:57:31.049Z,3528.00
2019-04-20T07:58:25.279Z,3512.00
2019-04-20T07:59:25.203Z,3524.00
2019-04-20T08:00:41.908Z,3524.00
2019-04-20T08:01:38.855Z,3520.00
2019-04-20T08:02:38.132Z,3520.00
2019-04-20T08:03:50.414Z,3520.00
2019-04-20T08:04:32.590Z,3516.00
2019-04-20T08:05:27.858Z,3516.00
2019-04-20T08:06:21.349Z,3516.00
2019-04-20T08:07:14.605Z,3512.00
2019-04-20T08:08:30.803Z,3512.00
2019-04-20T08:09:22.214Z,3520.00
2019-04-20T08:10:32.547Z,3516.00
2019-04-20T08:11:36.667Z,3520.00
2019-04-20T08:12:42.033Z,3512.00
2019-04-20T08:13:43.078Z,3512.00
2019-04-20T08:14:39.927Z,3516.00
2019-04-20T08:15:46.062Z,3512.00
2019-04-20T08:16:41.051Z,3512.00
2019-04-20T08:17:40.371Z,3512.00
2019-04-20T08:18:52.245Z,3512.00
2019-04-20T08:19:35.354Z,3516.00
2019-04-20T08:20:33.071Z,3504.00
2019-04-20T08:21:38.778Z,3504.00
2019-04-20T08:22:35.516Z,3500.00
2019-04-20T08:23:33.614Z,3496.00
2019-04-20T08:24:32.807Z,3496.00
2019-04-20T08:25:23.553Z,3488.00
2019-04-20T08:26:30.242Z,3488.00
2019-04-20T08:28:25.007Z,3496.00
2019-04-20T08:29:30.122Z,3488.00
2019-04-20T08:30:33.855Z,3488.00
2019-04-20T08:31:33.743Z,3488.00
2019-04-20T08:32:38.740Z,3488.00
2019-04-20T08:33:44.327Z,3488.00
2019-04-20T08:36:25.735Z,3480.00
2019-04-20T08:40:17.700Z,3484.00
2019-04-20T08:42:07.430Z,3496.00
2019-04-20T08:43:32.702Z,3496.00
2019-04-20T08:45:17.989Z,3488.00
2019-04-20T08:46:15.091Z,3488.00
2019-04-20T08:47:21.480Z,3488.00
2019-04-20T08:48:31.016Z,3484.00
